FW4407 Metamorfossi GR current weather conditions

sailwx.info

Wind from 171 at 1 knots gusting 8

Air temperature 33.9° C
Dewpoint 19.5° C

Last reported at 2020-Aug-06 13:00 UTC.
Time now 2020-Aug-06 13:24 UTC

Location: N 38°03' E 023°45'.
View on Google Maps.

See reports from other nearby stations

  
Tides and Currents Weather Stations Pressure Air Temp Water Temp Dewpoint Dewpoint Depression Visibility Wind Speed Wind Dir Waves Ship Positions
date/time (UTC)wind fromknots sea level pressurealtimeterstation pressurevisibilityair tempwater tempwave heightnotes
2020-Aug-06 13:00 171 1 gusting 8 33.9
2020-Aug-06 12:50 137 2 gusting 8 33.9
2020-Aug-06 12:40 220 3 gusting 11 33.9
2020-Aug-06 12:30 245 1 gusting 8 33.9
2020-Aug-06 12:20 215 1 gusting 6 33.3
2020-Aug-06 12:10 217 1 gusting 6 33.3
2020-Aug-06 12:00 096 1 gusting 6 33.3
2020-Aug-06 11:50 232 2 gusting 11 33.3
2020-Aug-06 11:40 239 2 gusting 11 33.3
2020-Aug-06 11:30 248 2 gusting 8 33.3
2020-Aug-06 11:20 229 2 gusting 8 33.3
2020-Aug-06 11:10 231 1 gusting 4 33.3
2020-Aug-06 11:00 210 1 gusting 6 33.3
2020-Aug-06 10:50 243 1 gusting 6 33.3
2020-Aug-06 10:40 232 2 gusting 8 33.3
2020-Aug-06 10:30 217 1 gusting 11 33.3
2020-Aug-06 10:20 220 1 gusting 6 32.8
2020-Aug-06 10:10 233 1 gusting 6 32.8
2020-Aug-06 10:00 205 0 gusting 4 32.8
2020-Aug-06 09:50 223 0 gusting 4 32.8
2020-Aug-06 09:40 232 1 gusting 6 32.8
2020-Aug-06 09:30 235 1 gusting 6 32.8
2020-Aug-06 09:20 236 1 gusting 6 32.2
2020-Aug-06 09:10 215 2 gusting 6 32.2
2020-Aug-06 09:00 120 1 gusting 6 31.7
2020-Aug-06 08:50 173 1 gusting 4 31.7
2020-Aug-06 08:40 329 0 gusting 1 31.1
2020-Aug-06 08:30 169 0 gusting 4 30.6
2020-Aug-06 08:20 020 1 gusting 6 30.0
2020-Aug-06 08:10 136 1 gusting 6 30.0
2020-Aug-06 08:00 040 2 gusting 6 29.4
2020-Aug-06 07:50 035 1 gusting 6 29.4
2020-Aug-06 07:40 033 1 gusting 6 29.4
2020-Aug-06 07:30 058 2 gusting 6 28.9
2020-Aug-06 07:20 115 3 gusting 8 28.9
2020-Aug-06 07:10 123 2 gusting 8 28.3
2020-Aug-06 07:00 130 4 gusting 11 28.3
2020-Aug-06 06:50 109 2 gusting 8 28.3
2020-Aug-06 06:40 051 1 gusting 6 27.8
2020-Aug-06 06:30 109 1 gusting 6 27.8
2020-Aug-06 06:20 103 3 gusting 11 27.8
2020-Aug-06 06:10 104 2 gusting 13 27.8
2020-Aug-06 06:00 066 1 gusting 8 27.2
2020-Aug-06 05:50 047 2 gusting 6 26.7
2020-Aug-06 05:40 112 1 gusting 8 26.7
2020-Aug-06 05:30 116 3 gusting 11 26.7
2020-Aug-06 05:20 105 3 gusting 11 26.1
2020-Aug-06 05:10 093 1 gusting 6 25.6
2020-Aug-06 05:00 127 2 gusting 6 25.6
2020-Aug-06 04:50 114 3 gusting 13 25.0
2020-Aug-06 04:40 124 3 gusting 8 25.0
2020-Aug-06 04:30 114 4 gusting 11 24.4
2020-Aug-06 04:20 118 4 gusting 11 24.4
2020-Aug-06 04:10 125 4 gusting 11 24.4
2020-Aug-06 04:00 127 4 gusting 11 24.4
2020-Aug-06 03:50 112 1 gusting 6 24.4
2020-Aug-06 03:40 123 2 gusting 8 24.4
2020-Aug-06 03:30 113 3 gusting 8 24.4
2020-Aug-06 03:20 123 3 gusting 6 24.4
2020-Aug-06 03:10 108 1 gusting 6 24.4
2020-Aug-06 03:00 116 3 gusting 8 24.4
2020-Aug-06 02:50 112 2 gusting 8 25.0
2020-Aug-06 02:40 124 1 gusting 8 25.0
2020-Aug-06 02:30 152 0 gusting 1 25.0
2020-Aug-06 02:20 117 2 gusting 6 25.0
2020-Aug-06 02:10 129 2 gusting 6 25.0
2020-Aug-06 02:00 124 1 gusting 6 25.0
2020-Aug-06 01:50 123 2 gusting 8 25.0
2020-Aug-06 01:40 095 1 gusting 6 25.0
2020-Aug-06 01:30 124 0 gusting 4 25.0
2020-Aug-06 01:20 134 0 gusting 4 25.0
2020-Aug-06 01:10 110 2 gusting 4 25.0
2020-Aug-06 01:00 142 0 gusting 4 25.0
2020-Aug-06 00:50 155 25.0
2020-Aug-06 00:40 026 25.0
2020-Aug-06 00:30 018 25.0
2020-Aug-06 00:20 132 0 gusting 1 25.0
2020-Aug-06 00:10 132 0 gusting 4 25.0
2020-Aug-06 00:00 109 2 gusting 6 24.4
2020-Aug-05 23:50 163 24.4
2020-Aug-05 23:40 120 0 gusting 4 24.4
2020-Aug-05 23:30 030 24.4
2020-Aug-05 23:20 021 24.4
2020-Aug-05 23:10 006 25.0
2020-Aug-05 23:00 021 0 gusting 1 25.0
2020-Aug-05 22:50 25.0
2020-Aug-05 22:40 120 25.0
2020-Aug-05 22:30 141 0 gusting 4 25.0
2020-Aug-05 22:20 139 25.0
2020-Aug-05 22:10 054 25.6
2020-Aug-05 22:00 022 0 gusting 4 25.6
2020-Aug-05 21:50 001 25.6
2020-Aug-05 21:40 25.6
2020-Aug-05 21:30 25.6
2020-Aug-05 21:20 134 25.6
2020-Aug-05 21:10 25.6
2020-Aug-05 21:00 010 26.1
2020-Aug-05 20:50 042 26.1
2020-Aug-05 20:40 354 26.1
2020-Aug-05 20:30 025 26.1
2020-Aug-05 20:20 127 26.1
2020-Aug-05 20:10 26.1
2020-Aug-05 20:00 003 0 gusting 4 26.7
2020-Aug-05 19:50 011 0 gusting 4 26.7
2020-Aug-05 19:40 014 26.7
2020-Aug-05 19:30 26.7
2020-Aug-05 19:20 26.7
2020-Aug-05 19:10 26.7
2020-Aug-05 19:00 26.7
2020-Aug-05 18:50 251 26.7
2020-Aug-05 18:40 348 26.7
2020-Aug-05 18:30 291 26.7
2020-Aug-05 18:20 295 0 gusting 4 26.7
2020-Aug-05 18:10 264 0 gusting 6 27.2
2020-Aug-05 18:00 227 27.2
2020-Aug-05 17:50 223 0 gusting 4 27.2
2020-Aug-05 17:40 267 0 gusting 4 27.2
2020-Aug-05 17:30 213 0 gusting 6 27.8
2020-Aug-05 17:20 248 0 gusting 6 28.3
2020-Aug-05 17:10 178 0 gusting 8 28.9
2020-Aug-05 17:00 236 0 gusting 4 28.9
2020-Aug-05 16:50 224 1 gusting 6 29.4
2020-Aug-05 16:40 239 2 gusting 6 30.6
2020-Aug-05 16:30 240 1 gusting 8 31.1
2020-Aug-05 16:20 259 1 gusting 6 31.7
2020-Aug-05 16:10 235 0 gusting 4 31.7
2020-Aug-05 16:00 228 0 gusting 4 31.7
2020-Aug-05 15:50 237 0 gusting 4 31.7
2020-Aug-05 15:40 220 0 gusting 4 32.2
2020-Aug-05 15:30 240 1 gusting 8 32.2
2020-Aug-05 15:20 218 1 gusting 6 32.8
2020-Aug-05 15:10 220 1 gusting 6 33.3
2020-Aug-05 15:00 230 2 gusting 8 33.9
2020-Aug-05 14:50 244 1 gusting 6 33.9
2020-Aug-05 14:40 218 0 gusting 4 33.9
2020-Aug-05 14:30 245 0 gusting 6 33.9
2020-Aug-05 14:20 238 0 gusting 4 34.4
2020-Aug-05 14:10 245 2 gusting 8 34.4
2020-Aug-05 14:00 237 1 gusting 8 35.0
2020-Aug-05 13:50 208 1 gusting 6 35.0
2020-Aug-05 13:40 193 2 gusting 6 35.6
2020-Aug-05 13:30 235 1 gusting 4 35.6
2020-Aug-05 13:20 215 0 gusting 6 35.6
2020-Aug-05 13:10 230 1 gusting 8 35.6
2020-Aug-05 13:00 233 1 gusting 6 35.6
2020-Aug-05 12:50 243 1 gusting 6 35.6
2020-Aug-05 12:40 236 1 gusting 4 35.6
2020-Aug-05 12:30 200 1 gusting 6 36.1
2020-Aug-05 12:20 233 2 gusting 6 36.1
2020-Aug-05 12:10 214 1 gusting 6 35.6
2020-Aug-05 12:00 235 0 gusting 6 35.6
2020-Aug-05 11:50 112 35.0
2020-Aug-05 11:40 202 1 gusting 4 35.6
2020-Aug-05 11:30 246 1 gusting 6 35.6
2020-Aug-05 11:20 216 1 gusting 6 35.6
2020-Aug-05 11:10 218 0 gusting 6 35.0
2020-Aug-05 11:00 224 0 gusting 6 34.4
2020-Aug-05 10:50 215 0 gusting 4 34.4
2020-Aug-05 10:40 217 3 gusting 11 34.4
2020-Aug-05 10:30 236 2 gusting 8 34.4
2020-Aug-05 10:20 220 1 gusting 6 34.4
2020-Aug-05 10:10 289 0 gusting 4 34.4
2020-Aug-05 10:00 256 0 gusting 4 33.9
2020-Aug-05 09:50 217 0 gusting 4 33.9
2020-Aug-05 09:40 172 0 gusting 4 33.3
2020-Aug-05 09:30 136 0 gusting 4 32.8
2020-Aug-05 09:20 216 1 gusting 4 32.8
2020-Aug-05 09:10 228 2 gusting 8 32.2
2020-Aug-05 09:00 352 0 gusting 1 32.2
2020-Aug-05 08:50 059 0 gusting 6 32.2
2020-Aug-05 08:40 085 1 gusting 6 32.2
2020-Aug-05 08:30 308 0 gusting 1 32.2
2020-Aug-05 08:20 31.7
2020-Aug-05 08:10 119 1 gusting 8 31.7
2020-Aug-05 08:00 093 0 gusting 4 31.7
2020-Aug-05 07:50 358 31.1
2020-Aug-05 07:40 124 2 gusting 6 31.1
2020-Aug-05 07:30 121 1 gusting 6 30.6
2020-Aug-05 07:20 113 2 gusting 6 30.6
2020-Aug-05 07:10 111 2 gusting 6 30.0
2020-Aug-05 07:00 126 0 gusting 4 30.0
2020-Aug-05 06:50 126 2 gusting 8 29.4
2020-Aug-05 06:40 115 1 gusting 8 29.4
2020-Aug-05 06:30 114 0 gusting 4 28.9
2020-Aug-05 06:20 118 3 gusting 6 28.9
2020-Aug-05 06:10 134 28.3
2020-Aug-05 06:00 119 1 gusting 6 27.8
2020-Aug-05 05:50 114 1 gusting 6 27.8
2020-Aug-05 05:40 117 3 gusting 8 27.2
2020-Aug-05 05:30 129 1 gusting 6 27.2
2020-Aug-05 05:20 121 2 gusting 8 26.7
2020-Aug-05 05:10 125 0 gusting 4 26.1
2020-Aug-05 05:00 127 0 gusting 4 26.1
2020-Aug-05 04:50 119 1 gusting 8 25.6
2020-Aug-05 04:40 129 1 gusting 6 25.6
2020-Aug-05 04:30 123 0 gusting 4 25.0
2020-Aug-05 04:20 136 0 gusting 4 25.0
2020-Aug-05 04:10 127 24.4
2020-Aug-05 04:00 054 25.0
2020-Aug-05 03:50 152 25.0
2020-Aug-05 03:40 135 25.0
2020-Aug-05 03:30 116 1 gusting 6 25.0
2020-Aug-05 03:20 129 25.0
2020-Aug-05 03:10 132 0 gusting 4 25.0
2020-Aug-05 03:00 131 0 gusting 4 25.0
2020-Aug-05 02:50 129 0 gusting 4 25.0
2020-Aug-05 02:40 130 2 gusting 6 25.0
2020-Aug-05 02:30 118 3 gusting 8 25.0
2020-Aug-05 02:20 109 1 gusting 6 25.0
2020-Aug-05 02:10 122 1 gusting 4 25.0
2020-Aug-05 02:00 110 1 gusting 4 25.0
2020-Aug-05 01:50 113 0 gusting 4 25.0
2020-Aug-05 01:40 018 0 gusting 4 25.0
2020-Aug-05 01:30 110 25.0
2020-Aug-05 01:20 143 0 gusting 1 25.0
2020-Aug-05 01:10 160 24.4
2020-Aug-05 01:00 137 24.4
2020-Aug-05 00:50 108 0 gusting 1 24.4
2020-Aug-05 00:40 099 24.4
2020-Aug-05 00:30 007 24.4
2020-Aug-05 00:20 128 0 gusting 4 23.9
2020-Aug-05 00:10 121 0 gusting 1 23.9
2020-Aug-05 00:00 010 0 gusting 4 24.4
2020-Aug-04 23:50 022 0 gusting 4 24.4
2020-Aug-04 23:40 033 24.4
2020-Aug-04 23:30 020 25.0
2020-Aug-04 23:20 006 25.0
2020-Aug-04 23:10 131 25.0
2020-Aug-04 23:00 141 25.0
2020-Aug-04 22:50 25.0
2020-Aug-04 22:40 027 25.0
2020-Aug-04 22:30 031 25.6
2020-Aug-04 22:20 016 25.6
2020-Aug-04 22:10 022 25.6
2020-Aug-04 22:00 135 25.6
2020-Aug-04 21:50 158 25.6
2020-Aug-04 21:40 126 0 gusting 4 25.6
2020-Aug-04 21:30 007 26.1
2020-Aug-04 21:20 017 26.1
2020-Aug-04 21:10 017 0 gusting 4 26.1
2020-Aug-04 21:00 26.7
2020-Aug-04 20:50 26.7
2020-Aug-04 20:40 26.7
2020-Aug-04 20:30 26.7
2020-Aug-04 20:20 26.7
2020-Aug-04 20:10 234 26.7
2020-Aug-04 20:00 234 26.7
2020-Aug-04 19:50 26.7
2020-Aug-04 19:40 26.7
2020-Aug-04 19:30 270 26.7
2020-Aug-04 19:20 268 26.7
2020-Aug-04 19:10 233 26.7
2020-Aug-04 19:00 235 26.7
2020-Aug-04 18:50 305 27.2
2020-Aug-04 18:40 278 27.2
2020-Aug-04 18:30 279 0 gusting 4 27.2
2020-Aug-04 18:20 230 0 gusting 4 27.2
2020-Aug-04 18:10 233 27.2
2020-Aug-04 18:00 258 27.2
2020-Aug-04 17:50 231 0 gusting 4 27.8
2020-Aug-04 17:40 234 0 gusting 6 27.8
2020-Aug-04 17:30 229 0 gusting 4 28.3
2020-Aug-04 17:20 249 0 gusting 4 28.3
2020-Aug-04 17:10 237 0 gusting 4 28.9
2020-Aug-04 17:00 221 0 gusting 1 29.4
2020-Aug-04 16:50 244 0 gusting 4 29.4
2020-Aug-04 16:40 209 0 gusting 1 30.0
2020-Aug-04 16:30 235 0 gusting 4 30.6
2020-Aug-04 16:20 227 1 gusting 6 30.6
2020-Aug-04 16:10 231 0 gusting 6 31.1
2020-Aug-04 16:00 213 0 gusting 4 31.1
2020-Aug-04 15:50 237 0 gusting 6 31.1
2020-Aug-04 15:40 211 0 gusting 6 31.1
2020-Aug-04 15:30 216 0 gusting 4 31.1
2020-Aug-04 15:20 229 1 gusting 6 31.1
2020-Aug-04 15:10 217 1 gusting 8 31.7
2020-Aug-04 15:00 226 2 gusting 8 32.2
2020-Aug-04 14:50 216 1 gusting 6 32.8
2020-Aug-04 14:40 200 0 gusting 4 32.8
2020-Aug-04 14:30 214 1 gusting 6 33.3
2020-Aug-04 14:20 232 2 gusting 11 33.3
2020-Aug-04 14:10 245 1 gusting 6 33.9
2020-Aug-04 14:00 238 0 gusting 4 33.9
2020-Aug-04 13:50 232 1 gusting 6 33.9
2020-Aug-04 13:40 237 0 gusting 6 33.9
2020-Aug-04 13:30 248 1 gusting 6 33.9
2020-Aug-04 13:20 242 1 gusting 6 33.9
2020-Aug-04 13:10 221 2 gusting 6 33.9
2020-Aug-04 13:00 237 0 gusting 4 33.3